Time;durP1;ratioP1;P1;durP2;ratioP2;P2;SDS_P1;SDS_P2;PMS_P1;PMS_P2;Temp;Humidity;BMP_temperature;BMP_pressure;BME280_temperature;BME280_humidity;BME280_pressure;Samples;Min_cycle;Max_cycle;Signal;HPM_P1;HPM_P2
2019/07/03 00:01:58;;;;;;;5.5;3.4;;;;;;;18.07;57.02539;1006.752;;;;
2019/07/03 00:04:24;;;;;;;6.8;3.3;;;;;;;17.87;57.95313;1006.777;;;;
2019/07/03 00:06:48;;;;;;;4.9;3.3;;;;;;;17.73;58.63281;1006.774;;;;
2019/07/03 00:09:14;;;;;;;5.4;3.5;;;;;;;17.69;58.9668;1006.778;;;;
2019/07/03 00:11:39;;;;;;;5.4;3.5;;;;;;;17.76;58.8584;1006.762;;;;
2019/07/03 00:14:04;;;;;;;4.5;3.6;;;;;;;17.83;58.54102;1006.735;;;;
2019/07/03 00:16:29;;;;;;;5.8;3.3;;;;;;;17.9;58.31738;1006.749;;;;
2019/07/03 00:18:54;;;;;;;8.1;3.4;;;;;;;17.84;58.42676;1006.811;;;;
2019/07/03 00:21:22;;;;;;;6.1;4.3;;;;;;;17.78;58.52441;1006.823;;;;
2019/07/03 00:23:45;;;;;;;6.7;4.1;;;;;;;17.63;58.77051;1006.85;;;;
2019/07/03 00:26:11;;;;;;;7.8;4.5;;;;;;;17.66;58.8457;1006.862;;;;
2019/07/03 00:28:35;;;;;;;5.3;4.2;;;;;;;17.77;58.41699;1006.891;;;;
2019/07/03 00:31:02;;;;;;;6.1;4.4;;;;;;;17.53;59.0498;1006.876;;;;
2019/07/03 00:33:26;;;;;;;5;4.1;;;;;;;17.43;59.22266;1006.921;;;;
2019/07/03 00:35:52;;;;;;;6.8;4.3;;;;;;;17.19;59.99121;1006.894;;;;
2019/07/03 00:38:17;;;;;;;4.9;4.2;;;;;;;17.07;60.18359;1006.897;;;;
2019/07/03 00:40:42;;;;;;;6.1;4;;;;;;;17.08;60.21973;1006.889;;;;
2019/07/03 00:43:07;;;;;;;4.4;4;;;;;;;16.99;60.12695;1006.948;;;;
2019/07/03 00:45:32;;;;;;;4.7;4.1;;;;;;;17;59.95313;1006.985;;;;
2019/07/03 00:47:57;;;;;;;4.3;3.9;;;;;;;17;60.00098;1006.929;;;;
2019/07/03 00:50:22;;;;;;;5.2;3.9;;;;;;;16.98;60.00977;1006.939;;;;
2019/07/03 00:52:47;;;;;;;5.7;4.2;;;;;;;16.95;60.11035;1006.896;;;;
2019/07/03 00:55:12;;;;;;;4.5;4.1;;;;;;;16.95;60.22559;1006.871;;;;
2019/07/03 00:57:37;;;;;;;5;4.3;;;;;;;16.97;60.22754;1006.877;;;;
2019/07/03 01:00:02;;;;;;;4.8;4;;;;;;;16.92;60.33789;1006.849;;;;
2019/07/03 01:02:28;;;;;;;5.1;4.1;;;;;;;16.78;60.77148;1006.818;;;;
2019/07/03 01:04:54;;;;;;;6.1;4.1;;;;;;;16.8;60.83203;1006.83;;;;
2019/07/03 01:07:18;;;;;;;6.2;3.9;;;;;;;16.75;61.0459;1006.796;;;;
2019/07/03 01:09:43;;;;;;;6;4.2;;;;;;;16.78;61.00488;1006.818;;;;
2019/07/03 01:12:08;;;;;;;5.8;4.2;;;;;;;16.73;61.42676;1006.802;;;;
2019/07/03 01:14:33;;;;;;;8.4;4.5;;;;;;;16.79;61.35449;1006.854;;;;
2019/07/03 01:16:58;;;;;;;6.1;4.4;;;;;;;16.73;61.68262;1006.842;;;;
2019/07/03 01:19:23;;;;;;;5.3;4.1;;;;;;;16.71;61.81934;1006.856;;;;
2019/07/03 01:21:49;;;;;;;6.3;4.4;;;;;;;16.73;61.82129;1006.869;;;;
2019/07/03 01:24:16;;;;;;;4.8;4.2;;;;;;;16.63;62.19043;1006.855;;;;
2019/07/03 01:26:40;;;;;;;5.7;4.5;;;;;;;16.65;62.16992;1006.908;;;;
2019/07/03 01:29:06;;;;;;;5.4;4;;;;;;;16.59;62.47559;1006.878;;;;
2019/07/03 01:31:33;;;;;;;6;4.2;;;;;;;16.55;62.64355;1006.899;;;;
2019/07/03 01:33:59;;;;;;;6.1;4.1;;;;;;;16.56;62.66699;1006.911;;;;
2019/07/03 01:36:22;;;;;;;5.4;4.4;;;;;;;16.46;62.97852;1006.9;;;;
2019/07/03 01:38:47;;;;;;;4.3;3.9;;;;;;;16.47;62.99121;1006.909;;;;
2019/07/03 01:41:14;;;;;;;4.8;4.1;;;;;;;16.43;63.13574;1006.953;;;;
2019/07/03 01:43:38;;;;;;;4.8;4.4;;;;;;;16.48;62.93457;1006.944;;;;
2019/07/03 01:46:04;;;;;;;5;4.5;;;;;;;16.39;63.1543;1006.941;;;;
2019/07/03 01:48:29;;;;;;;5.6;4.9;;;;;;;16.33;63.3418;1006.966;;;;
2019/07/03 01:50:54;;;;;;;6;4.7;;;;;;;16.33;63.2373;1006.968;;;;
2019/07/03 01:53:18;;;;;;;4.7;4.3;;;;;;;16.44;62.84863;1006.984;;;;
2019/07/03 01:55:43;;;;;;;5.5;5;;;;;;;16.24;63.42285;1006.937;;;;
2019/07/03 01:58:09;;;;;;;6;4.6;;;;;;;16.08;63.97949;1006.929;;;;
2019/07/03 02:00:33;;;;;;;6.2;4.8;;;;;;;16.15;63.70996;1006.932;;;;
2019/07/03 02:02:59;;;;;;;5.3;4.7;;;;;;;16.07;63.98828;1006.968;;;;
2019/07/03 02:05:24;;;;;;;6.6;4.9;;;;;;;16.07;64.09277;1006.939;;;;
2019/07/03 02:07:49;;;;;;;5.9;5.1;;;;;;;16.17;63.71387;1006.889;;;;
2019/07/03 02:10:15;;;;;;;5.5;5;;;;;;;16.24;63.43359;1006.938;;;;
2019/07/03 02:12:39;;;;;;;5.6;4.8;;;;;;;16.13;63.70801;1006.977;;;;
2019/07/03 02:15:05;;;;;;;6.4;4.7;;;;;;;16.36;63.10254;1006.958;;;;
2019/07/03 02:17:30;;;;;;;6.1;5.2;;;;;;;16.23;63.16504;1007.012;;;;
2019/07/03 02:19:55;;;;;;;5.6;5;;;;;;;16.16;63.47949;1007.023;;;;
2019/07/03 02:22:21;;;;;;;5.1;4.6;;;;;;;16.37;62.82617;1007.066;;;;
2019/07/03 02:24:46;;;;;;;5.8;4.8;;;;;;;16.26;63.26367;1007.08;;;;
2019/07/03 02:27:11;;;;;;;5.6;4.8;;;;;;;16.16;63.3291;1007.032;;;;
2019/07/03 02:29:36;;;;;;;5.9;4.9;;;;;;;16.02;63.90039;1007.004;;;;
2019/07/03 02:32:01;;;;;;;6.1;5;;;;;;;16.12;63.70605;1007.041;;;;
2019/07/03 02:34:27;;;;;;;5.7;4.7;;;;;;;16.05;63.58008;1006.99;;;;
2019/07/03 02:36:51;;;;;;;5.4;4.8;;;;;;;16;63.70117;1006.989;;;;
2019/07/03 02:39:16;;;;;;;5.1;4.6;;;;;;;15.75;64.52051;1007.009;;;;
2019/07/03 02:41:42;;;;;;;8;4.9;;;;;;;15.59;65.13379;1007.015;;;;
2019/07/03 02:44:07;;;;;;;6.3;5;;;;;;;15.47;65.65039;1006.969;;;;
2019/07/03 02:46:31;;;;;;;5.8;4.9;;;;;;;15.51;65.44727;1006.914;;;;
2019/07/03 02:48:57;;;;;;;5.7;5.2;;;;;;;15.46;65.64746;1007.007;;;;
2019/07/03 02:51:23;;;;;;;6.4;5.2;;;;;;;15.49;65.52539;1007.016;;;;
2019/07/03 02:53:47;;;;;;;5.5;5;;;;;;;15.59;65.20605;1007.027;;;;
2019/07/03 02:56:12;;;;;;;6.2;4.6;;;;;;;15.59;64.99707;1007.044;;;;
2019/07/03 02:58:38;;;;;;;6.9;4.7;;;;;;;15.59;64.99609;1007.084;;;;
2019/07/03 03:01:02;;;;;;;7.3;4.9;;;;;;;15.47;65.4082;1007.092;;;;
2019/07/03 03:03:27;;;;;;;5;4.5;;;;;;;15.45;65.62305;1007.076;;;;
2019/07/03 03:05:52;;;;;;;6.8;5;;;;;;;15.47;65.41797;1007.103;;;;
2019/07/03 03:08:18;;;;;;;5.5;4.9;;;;;;;15.46;65.6123;1007.101;;;;
2019/07/03 03:10:43;;;;;;;5.6;4.8;;;;;;;15.41;65.74512;1007.073;;;;
2019/07/03 03:13:08;;;;;;;5.7;5.1;;;;;;;15.38;65.79883;1007.059;;;;
2019/07/03 03:15:33;;;;;;;5.6;5;;;;;;;15.31;66.13672;1007.066;;;;
2019/07/03 03:17:58;;;;;;;5.1;4.6;;;;;;;15.55;65.52148;1007.102;;;;
2019/07/03 03:20:23;;;;;;;6.9;5.1;;;;;;;15.39;65.76465;1007.165;;;;
2019/07/03 03:22:48;;;;;;;6;5.3;;;;;;;15.44;65.76074;1007.147;;;;
2019/07/03 03:25:13;;;;;;;6.9;5.1;;;;;;;15.45;65.4502;1007.178;;;;
2019/07/03 03:27:38;;;;;;;7.5;5.5;;;;;;;15.37;65.86523;1007.212;;;;
2019/07/03 03:30:04;;;;;;;6.6;5.5;;;;;;;15.21;66.59277;1007.21;;;;
2019/07/03 03:32:29;;;;;;;5.7;5.1;;;;;;;15.15;66.94336;1007.238;;;;
2019/07/03 03:34:54;;;;;;;6.1;4.9;;;;;;;15.16;67.12012;1007.28;;;;
2019/07/03 03:37:19;;;;;;;6;5.4;;;;;;;15.17;67.23633;1007.3;;;;
2019/07/03 03:39:45;;;;;;;6.2;5.4;;;;;;;15.16;67.47852;1007.274;;;;
2019/07/03 03:42:10;;;;;;;8.4;5.7;;;;;;;15.27;67.18262;1007.298;;;;
2019/07/03 03:44:35;;;;;;;9;5.6;;;;;;;15.27;67.21777;1007.375;;;;
2019/07/03 03:47:00;;;;;;;8.7;5.5;;;;;;;15.27;67.28711;1007.405;;;;
2019/07/03 03:49:25;;;;;;;6.3;5.6;;;;;;;15.25;67.62988;1007.433;;;;
2019/07/03 03:51:50;;;;;;;5.6;5.1;;;;;;;15.3;67.34863;1007.436;;;;
2019/07/03 03:54:15;;;;;;;7.5;6;;;;;;;15.28;67.4375;1007.466;;;;
2019/07/03 03:56:40;;;;;;;7;5.4;;;;;;;15.32;67.43262;1007.469;;;;
2019/07/03 03:59:05;;;;;;;6.4;5.6;;;;;;;15.3;67.64941;1007.46;;;;
2019/07/03 04:02:27;;;;;;;6.6;5.3;;;;;;;15.32;67.62891;1007.485;;;;
2019/07/03 04:04:53;;;;;;;6.7;5.4;;;;;;;15.4;67.58398;1007.465;;;;
2019/07/03 04:07:18;;;;;;;6.6;5.1;;;;;;;15.48;67.3418;1007.438;;;;
2019/07/03 04:09:43;;;;;;;6.8;5.2;;;;;;;15.55;67.15625;1007.498;;;;
2019/07/03 04:12:08;;;;;;;6.3;5.5;;;;;;;15.5;67.4375;1007.518;;;;
2019/07/03 04:14:33;;;;;;;6.7;5.6;;;;;;;15.58;67.20605;1007.526;;;;
2019/07/03 04:16:58;;;;;;;6.6;5.1;;;;;;;15.64;66.97168;1007.472;;;;
2019/07/03 04:19:23;;;;;;;7.2;5.1;;;;;;;15.62;66.86426;1007.496;;;;
2019/07/03 04:21:48;;;;;;;5.9;5.3;;;;;;;15.66;66.84863;1007.549;;;;
2019/07/03 04:24:13;;;;;;;6.4;5.1;;;;;;;15.68;66.75977;1007.587;;;;
2019/07/03 04:26:38;;;;;;;5.5;4.6;;;;;;;15.84;66.04102;1007.607;;;;
2019/07/03 04:29:03;;;;;;;6.2;4.8;;;;;;;15.85;65.96289;1007.603;;;;
2019/07/03 04:31:29;;;;;;;6.7;4.8;;;;;;;15.93;65.52148;1007.631;;;;
2019/07/03 04:33:54;;;;;;;8.4;4.6;;;;;;;16.15;64.33691;1007.622;;;;
2019/07/03 04:36:19;;;;;;;5.3;4.4;;;;;;;16.17;63.93457;1007.612;;;;
2019/07/03 04:38:44;;;;;;;5.4;4.2;;;;;;;16.33;63.50488;1007.596;;;;
2019/07/03 04:41:09;;;;;;;5.3;4;;;;;;;16.47;62.84082;1007.613;;;;
2019/07/03 04:43:34;;;;;;;5.3;4.1;;;;;;;16.56;62.62012;1007.596;;;;
2019/07/03 04:45:59;;;;;;;6.5;3.6;;;;;;;16.64;62.00586;1007.648;;;;
2019/07/03 04:48:24;;;;;;;5;3.6;;;;;;;16.81;61.36719;1007.613;;;;
2019/07/03 04:50:49;;;;;;;4.6;3.4;;;;;;;17.2;59.94629;1007.573;;;;
2019/07/03 04:53:14;;;;;;;5.6;3.4;;;;;;;17.63;58.3418;1007.552;;;;
2019/07/03 04:55:40;;;;;;;4.6;3.3;;;;;;;18.01;57.0293;1007.598;;;;
2019/07/03 04:58:05;;;;;;;5.3;3.1;;;;;;;18.42;54.90332;1007.591;;;;
2019/07/03 05:00:30;;;;;;;6.5;3;;;;;;;18.72;53.94727;1007.597;;;;
2019/07/03 05:02:55;;;;;;;5.1;2.6;;;;;;;18.86;52.75293;1007.607;;;;
2019/07/03 05:05:20;;;;;;;5.7;2.8;;;;;;;19;52.54688;1007.609;;;;
2019/07/03 05:07:45;;;;;;;6;2.8;;;;;;;18.87;52.39063;1007.644;;;;
2019/07/03 05:10:10;;;;;;;3.8;2.5;;;;;;;18.67;53.19434;1007.679;;;;
2019/07/03 05:12:36;;;;;;;3.6;2.3;;;;;;;18.43;53.00391;1007.616;;;;
2019/07/03 05:15:01;;;;;;;4.3;2.2;;;;;;;18.5;52.77832;1007.645;;;;
2019/07/03 05:17:26;;;;;;;3.4;2.3;;;;;;;18.42;52.86328;1007.61;;;;
2019/07/03 05:19:51;;;;;;;4.9;2.2;;;;;;;18.47;52.9834;1007.61;;;;
2019/07/03 05:22:16;;;;;;;4.2;2.1;;;;;;;18.8;51.72852;1007.624;;;;
2019/07/03 05:24:41;;;;;;;3.8;2.3;;;;;;;18.89;51.37891;1007.646;;;;
2019/07/03 05:27:06;;;;;;;4.3;2.1;;;;;;;18.74;51.90918;1007.644;;;;
2019/07/03 05:29:31;;;;;;;4.4;2.1;;;;;;;18.99;51.0166;1007.688;;;;
2019/07/03 05:31:56;;;;;;;4;2;;;;;;;19.1;50.81934;1007.574;;;;
2019/07/03 05:34:22;;;;;;;5.5;2.1;;;;;;;19.01;49.66504;1007.7;;;;
2019/07/03 05:36:47;;;;;;;5.7;2.3;;;;;;;18.83;51.34766;1007.604;;;;
2019/07/03 05:39:12;;;;;;;5.6;2;;;;;;;18.6;50.99512;1007.648;;;;
2019/07/03 05:41:37;;;;;;;4.5;1.9;;;;;;;18.76;50.68652;1007.662;;;;
2019/07/03 05:44:02;;;;;;;3.7;1.9;;;;;;;18.99;50.09473;1007.654;;;;
2019/07/03 05:46:27;;;;;;;4.8;1.9;;;;;;;18.84;50.21777;1007.68;;;;
2019/07/03 05:48:52;;;;;;;4.7;2.1;;;;;;;18.85;50.84766;1007.698;;;;
2019/07/03 05:51:18;;;;;;;5.5;1.8;;;;;;;19.13;50.00488;1007.695;;;;
2019/07/03 05:53:43;;;;;;;3.1;1.8;;;;;;;19.09;49.83789;1007.681;;;;
2019/07/03 05:56:08;;;;;;;4.3;1.9;;;;;;;19.6;48.62109;1007.743;;;;
2019/07/03 05:58:33;;;;;;;5.1;1.8;;;;;;;19.74;48.68359;1007.709;;;;
2019/07/03 06:00:59;;;;;;;3;1.8;;;;;;;20.08;47.08203;1007.689;;;;
2019/07/03 06:03:24;;;;;;;4.3;1.6;;;;;;;20.05;46.66992;1007.663;;;;
2019/07/03 06:05:49;;;;;;;4.6;1.8;;;;;;;20.5;46.60059;1007.715;;;;
2019/07/03 06:08:14;;;;;;;4.5;1.7;;;;;;;20.81;45.13281;1007.779;;;;
2019/07/03 06:10:39;;;;;;;9.9;2;;;;;;;20.51;45.94531;1007.78;;;;
2019/07/03 06:13:05;;;;;;;6.8;1.8;;;;;;;20.9;44.9668;1007.829;;;;
2019/07/03 06:15:30;;;;;;;3.2;1.6;;;;;;;20.78;45.39941;1007.863;;;;
2019/07/03 06:17:55;;;;;;;4.2;1.5;;;;;;;20.95;44.74805;1007.814;;;;
2019/07/03 06:20:20;;;;;;;6.3;1.8;;;;;;;21.17;43.9502;1007.809;;;;
2019/07/03 06:22:45;;;;;;;4.3;1.7;;;;;;;21.13;44.52051;1007.882;;;;
2019/07/03 06:25:11;;;;;;;4.4;1.6;;;;;;;20.9;44.59082;1007.887;;;;
2019/07/03 06:27:35;;;;;;;2.7;1.8;;;;;;;20.82;44.48828;1007.797;;;;
2019/07/03 06:30:00;;;;;;;6.6;1.6;;;;;;;21.02;44.54395;1007.839;;;;
2019/07/03 06:32:25;;;;;;;2.7;1.6;;;;;;;21.13;43.00684;1007.904;;;;
2019/07/03 06:34:50;;;;;;;3.4;1.4;;;;;;;20.87;43.25098;1007.897;;;;
2019/07/03 06:37:16;;;;;;;3.9;1.6;;;;;;;20.95;43.47168;1007.946;;;;
2019/07/03 06:39:41;;;;;;;4.4;1.6;;;;;;;20.51;44.24707;1007.913;;;;
2019/07/03 06:42:06;;;;;;;2.8;1.4;;;;;;;20.69;43.67871;1007.923;;;;
2019/07/03 06:44:31;;;;;;;4.6;1.5;;;;;;;20.7;43.77441;1007.95;;;;
2019/07/03 06:46:56;;;;;;;3.5;1.6;;;;;;;20.69;43.81934;1007.924;;;;
2019/07/03 06:49:21;;;;;;;3.4;1.6;;;;;;;21.02;43.30176;1008.017;;;;
2019/07/03 06:51:47;;;;;;;3.4;1.5;;;;;;;21.55;42.09766;1008.009;;;;
2019/07/03 06:54:12;;;;;;;3.8;1.3;;;;;;;21.71;41.83105;1008.005;;;;
2019/07/03 06:56:37;;;;;;;7.7;1.5;;;;;;;21.8;40.96973;1008.044;;;;
2019/07/03 06:59:02;;;;;;;2.7;1.4;;;;;;;22.19;40.61816;1008.016;;;;
2019/07/03 07:01:27;;;;;;;4;1.6;;;;;;;22.26;39.93066;1008.026;;;;
2019/07/03 07:03:52;;;;;;;3;1.6;;;;;;;22.65;39.16504;1008.024;;;;
2019/07/03 07:06:17;;;;;;;3.3;1.4;;;;;;;23.4;37.73438;1007.971;;;;
2019/07/03 07:08:42;;;;;;;3.3;1.3;;;;;;;24.12;36.11914;1008.012;;;;
2019/07/03 07:11:07;;;;;;;6;1.6;;;;;;;23.77;36.69141;1008.014;;;;
2019/07/03 07:13:32;;;;;;;5.4;1.7;;;;;;;24.07;36.19727;1008.048;;;;
2019/07/03 07:15:57;;;;;;;3.1;1.4;;;;;;;25.85;33.09375;1008.134;;;;
2019/07/03 07:18:22;;;;;;;5.1;1.7;;;;;;;26.16;32.33301;1008.059;;;;
2019/07/03 07:20:47;;;;;;;5.7;1.7;;;;;;;27.87;30.04004;1008.07;;;;
2019/07/03 07:23:12;;;;;;;4.9;1.4;;;;;;;28.09;29.57813;1008.115;;;;
2019/07/03 07:25:38;;;;;;;3.6;1.6;;;;;;;27.1;30.61914;1008.064;;;;
2019/07/03 07:28:03;;;;;;;4.4;1.6;;;;;;;26.94;31.24902;1008.094;;;;
2019/07/03 07:30:28;;;;;;;4.6;1.6;;;;;;;25.77;32.53027;1008.147;;;;
2019/07/03 07:32:53;;;;;;;4.7;1.9;;;;;;;25.53;32.90527;1008.162;;;;
2019/07/03 07:35:18;;;;;;;4.4;1.7;;;;;;;25.89;32.74121;1008.182;;;;
2019/07/03 07:37:43;;;;;;;3.9;1.7;;;;;;;27.15;30.74121;1008.211;;;;
2019/07/03 07:40:08;;;;;;;4.3;1.4;;;;;;;27.28;30.69141;1008.194;;;;
2019/07/03 07:42:33;;;;;;;4.5;1.7;;;;;;;27.02;30.61426;1008.165;;;;
2019/07/03 07:44:59;;;;;;;4.3;1.6;;;;;;;27.96;29.75977;1008.189;;;;
2019/07/03 07:47:24;;;;;;;3.4;1.4;;;;;;;28.96;28.03613;1008.183;;;;
2019/07/03 07:49:49;;;;;;;5;1.4;;;;;;;28.22;28.68164;1008.089;;;;
2019/07/03 07:52:14;;;;;;;4;1.8;;;;;;;28.26;28.6123;1008.168;;;;
2019/07/03 07:54:39;;;;;;;3.9;1.4;;;;;;;28.43;28.1582;1008.119;;;;
2019/07/03 07:57:05;;;;;;;6.2;1.7;;;;;;;27.51;30.02832;1008.17;;;;
2019/07/03 07:59:30;;;;;;;3.9;1.5;;;;;;;27.84;29.51465;1008.182;;;;
2019/07/03 08:01:55;;;;;;;2.8;1.5;;;;;;;27.22;30.4248;1008.198;;;;
2019/07/03 08:04:20;;;;;;;6.1;1.6;;;;;;;27.32;30.19336;1008.217;;;;
2019/07/03 08:06:45;;;;;;;6.2;1.5;;;;;;;28.44;28.80273;1008.166;;;;
2019/07/03 08:09:10;;;;;;;4.7;1.6;;;;;;;28.22;29.14648;1008.123;;;;
2019/07/03 08:11:35;;;;;;;5.7;1.7;;;;;;;29.75;27.04492;1008.221;;;;
2019/07/03 08:14:01;;;;;;;3.7;1.4;;;;;;;28.84;27.64746;1008.157;;;;
2019/07/03 08:16:26;;;;;;;5;1.5;;;;;;;30.76;25.35645;1008.135;;;;
2019/07/03 08:18:51;;;;;;;4.1;1.4;;;;;;;29.72;26.43359;1008.163;;;;
2019/07/03 08:21:16;;;;;;;4.2;1.5;;;;;;;30.32;25.43848;1008.209;;;;
2019/07/03 08:23:42;;;;;;;8.7;1.6;;;;;;;30;25.92383;1008.17;;;;
2019/07/03 08:26:07;;;;;;;4.4;1.6;;;;;;;30.22;26.02051;1008.214;;;;
2019/07/03 08:28:32;;;;;;;8.3;1.5;;;;;;;29.83;25.94922;1008.133;;;;
2019/07/03 08:30:56;;;;;;;3.1;1.3;;;;;;;28.79;26.71387;1008.134;;;;
2019/07/03 08:33:22;;;;;;;8;1.5;;;;;;;29.39;26.52148;1008.143;;;;
2019/07/03 08:35:46;;;;;;;2.3;1.4;;;;;;;27.88;28.50488;1008.054;;;;
2019/07/03 08:38:11;;;;;;;2.5;1.3;;;;;;;29.35;26.87793;1008.007;;;;
2019/07/03 08:40:37;;;;;;;6.2;1.4;;;;;;;30.21;25.55273;1008.093;;;;
2019/07/03 08:43:02;;;;;;;3.8;1.2;;;;;;;30.6;25.0957;1008.073;;;;
2019/07/03 08:45:27;;;;;;;3.5;1.4;;;;;;;31.23;23.87109;1008.06;;;;
2019/07/03 08:47:52;;;;;;;3.8;1.3;;;;;;;28.94;26.31641;1008.088;;;;
2019/07/03 08:50:17;;;;;;;3.1;1.5;;;;;;;29.38;26.36621;1008.138;;;;
2019/07/03 08:52:42;;;;;;;8.1;1.5;;;;;;;29.27;25.69141;1008.054;;;;
2019/07/03 08:55:07;;;;;;;6.9;1.7;;;;;;;29.4;25.28027;1008.1;;;;
2019/07/03 08:57:33;;;;;;;5.3;1.6;;;;;;;28.55;26.70996;1008.06;;;;
2019/07/03 08:59:58;;;;;;;3.2;1.3;;;;;;;28.54;26.69824;1008.055;;;;
2019/07/03 09:02:23;;;;;;;5.5;1.5;;;;;;;27.95;27.44922;1008.023;;;;
2019/07/03 09:04:48;;;;;;;3.6;1.4;;;;;;;27.94;27.93652;1008.061;;;;
2019/07/03 09:07:13;;;;;;;6.5;1.6;;;;;;;28.94;25.86328;1008.003;;;;
2019/07/03 09:09:39;;;;;;;3.6;1.4;;;;;;;28.25;26.74121;1007.961;;;;
2019/07/03 09:12:05;;;;;;;3.2;1.4;;;;;;;28.5;26.6123;1008.011;;;;
2019/07/03 09:14:29;;;;;;;4.6;1.2;;;;;;;29.43;25.86719;1007.979;;;;
2019/07/03 09:16:55;;;;;;;4;1.5;;;;;;;28.09;26.93359;1008.03;;;;
2019/07/03 09:19:19;;;;;;;3.4;1.6;;;;;;;29.21;26.0332;1007.931;;;;
2019/07/03 09:21:45;;;;;;;4;1.4;;;;;;;30.59;23.50195;1007.975;;;;
2019/07/03 09:24:10;;;;;;;3.8;1.4;;;;;;;29.25;25.34277;1008.023;;;;
2019/07/03 09:26:35;;;;;;;3.3;1.3;;;;;;;28.29;26.04004;1007.96;;;;
2019/07/03 09:29:00;;;;;;;5.3;1.3;;;;;;;29.95;24.48535;1008.017;;;;
2019/07/03 09:31:26;;;;;;;2.7;1.4;;;;;;;29.4;24.82617;1008.045;;;;
2019/07/03 09:33:50;;;;;;;4;1.4;;;;;;;28.93;25.39648;1007.977;;;;
2019/07/03 09:36:15;;;;;;;2.9;1.4;;;;;;;29.65;24.30176;1007.956;;;;
2019/07/03 09:38:41;;;;;;;2.7;1.4;;;;;;;29.09;25.17871;1008.084;;;;
2019/07/03 09:41:05;;;;;;;4;1.5;;;;;;;27.92;26.86426;1007.952;;;;
2019/07/03 09:43:31;;;;;;;4.8;1.5;;;;;;;28.67;26.16895;1007.925;;;;
2019/07/03 09:45:56;;;;;;;3.3;1.5;;;;;;;28.8;25.47266;1008.025;;;;
2019/07/03 09:48:21;;;;;;;3.6;1.3;;;;;;;28.72;25.82617;1007.861;;;;
2019/07/03 09:50:46;;;;;;;2.8;1.5;;;;;;;29.48;24.71094;1007.859;;;;
2019/07/03 09:53:11;;;;;;;4.6;1.7;;;;;;;28.5;25.84961;1007.954;;;;
2019/07/03 09:55:36;;;;;;;2.4;1.4;;;;;;;28.76;25.74512;1007.992;;;;
2019/07/03 09:58:01;;;;;;;3.4;1.5;;;;;;;29.33;25.02539;1007.985;;;;
2019/07/03 10:00:26;;;;;;;3.8;1.6;;;;;;;31.02;23.23633;1007.857;;;;
2019/07/03 10:02:51;;;;;;;2.2;1.3;;;;;;;31.91;21.70801;1007.781;;;;
2019/07/03 10:05:17;;;;;;;3.2;1.3;;;;;;;31.09;22.80762;1007.857;;;;
2019/07/03 10:07:41;;;;;;;4.2;1.5;;;;;;;29.75;24.36719;1007.905;;;;
2019/07/03 10:10:06;;;;;;;2.2;1.4;;;;;;;30.37;23.79004;1007.882;;;;
2019/07/03 10:12:31;;;;;;;4.5;1.4;;;;;;;29.74;24.30664;1007.855;;;;
2019/07/03 10:14:57;;;;;;;3;1.3;;;;;;;30.78;23.44043;1007.79;;;;
2019/07/03 10:17:24;;;;;;;4.2;1.5;;;;;;;32.03;22.1709;1007.719;;;;
2019/07/03 10:19:47;;;;;;;3.9;1.5;;;;;;;31.73;22.07227;1007.761;;;;
2019/07/03 10:22:12;;;;;;;2.6;1.5;;;;;;;30.41;23.34863;1007.718;;;;
2019/07/03 10:24:39;;;;;;;5;1.6;;;;;;;29.9;24.38672;1007.754;;;;
2019/07/03 10:27:04;;;;;;;4.5;1.7;;;;;;;30.29;24.14453;1007.737;;;;
2019/07/03 10:29:27;;;;;;;2.9;1.5;;;;;;;28.97;25.42285;1007.768;;;;
2019/07/03 10:31:54;;;;;;;3;1.7;;;;;;;27.85;26.74121;1007.777;;;;
2019/07/03 10:34:17;;;;;;;2.9;1.3;;;;;;;27.37;27.54492;1007.79;;;;
2019/07/03 10:36:42;;;;;;;5.4;1.7;;;;;;;27.17;28.02051;1007.719;;;;
2019/07/03 10:39:07;;;;;;;3.8;1.4;;;;;;;26.95;28.43457;1007.611;;;;
2019/07/03 10:41:33;;;;;;;4.2;1.6;;;;;;;26.19;29.38184;1007.77;;;;
2019/07/03 10:43:58;;;;;;;3.3;1.5;;;;;;;25.99;30.22266;1007.658;;;;
2019/07/03 10:46:23;;;;;;;3.2;1.5;;;;;;;25.84;30.22559;1007.705;;;;
2019/07/03 10:48:48;;;;;;;3.1;1.6;;;;;;;25.52;30.43945;1007.716;;;;
2019/07/03 10:51:13;;;;;;;5.6;1.7;;;;;;;25.2;30.56055;1007.605;;;;
2019/07/03 10:53:38;;;;;;;4.7;1.6;;;;;;;25.56;30.65625;1007.652;;;;
2019/07/03 10:56:03;;;;;;;2.8;1.4;;;;;;;25.4;30.7998;1007.612;;;;
2019/07/03 10:58:28;;;;;;;3.6;1.4;;;;;;;25.63;30.69531;1007.654;;;;
2019/07/03 11:00:53;;;;;;;4.3;1.5;;;;;;;26.14;30.83789;1007.619;;;;
2019/07/03 11:03:19;;;;;;;4.2;1.5;;;;;;;25.72;30.25195;1007.609;;;;
2019/07/03 11:05:44;;;;;;;3.1;1.4;;;;;;;26.04;30.41602;1007.644;;;;
2019/07/03 11:08:09;;;;;;;3.9;1.7;;;;;;;25.88;30.44141;1007.714;;;;
2019/07/03 11:10:34;;;;;;;4.4;1.6;;;;;;;26.04;30.16699;1007.711;;;;
2019/07/03 11:12:59;;;;;;;3.9;1.6;;;;;;;25.85;29.87012;1007.669;;;;
2019/07/03 11:15:24;;;;;;;2.5;1.5;;;;;;;26.52;28.77539;1007.568;;;;
2019/07/03 11:17:57;;;;;;;3.1;1.5;;;;;;;26.22;28.70898;1007.603;;;;
2019/07/03 11:20:14;;;;;;;1.9;1.5;;;;;;;26.02;29.6084;1007.552;;;;
2019/07/03 11:22:39;;;;;;;2.5;1.5;;;;;;;25.98;29.97363;1007.541;;;;
2019/07/03 11:25:04;;;;;;;5;1.9;;;;;;;25.88;30.51172;1007.462;;;;
2019/07/03 11:27:29;;;;;;;3.2;1.5;;;;;;;26.23;29.55176;1007.59;;;;
2019/07/03 11:29:55;;;;;;;2.5;1.5;;;;;;;26.49;29.35449;1007.449;;;;
2019/07/03 11:32:20;;;;;;;2.6;1.4;;;;;;;26.26;29.06641;1007.447;;;;
2019/07/03 11:34:45;;;;;;;2.4;1.5;;;;;;;26.23;29.33691;1007.399;;;;
2019/07/03 11:37:10;;;;;;;2.8;1.4;;;;;;;26.45;29.08008;1007.414;;;;
2019/07/03 11:39:35;;;;;;;2.4;1.4;;;;;;;26.51;28.78613;1007.398;;;;
2019/07/03 11:42:00;;;;;;;5.8;1.5;;;;;;;26.76;28.30371;1007.379;;;;
2019/07/03 11:44:25;;;;;;;5.4;1.8;;;;;;;27.54;26.19922;1007.403;;;;
2019/07/03 11:46:50;;;;;;;3.8;1.4;;;;;;;27.31;27.19629;1007.385;;;;
2019/07/03 11:49:15;;;;;;;3.5;1.5;;;;;;;27.47;27.09863;1007.392;;;;
2019/07/03 11:51:40;;;;;;;2.7;1.7;;;;;;;27.32;28.21973;1007.397;;;;
2019/07/03 11:54:05;;;;;;;3.3;1.5;;;;;;;26.56;28.43359;1007.383;;;;
2019/07/03 11:56:30;;;;;;;3.8;1.4;;;;;;;26.78;28.625;1007.288;;;;
2019/07/03 11:58:56;;;;;;;4.1;1.4;;;;;;;26.53;29.2627;1007.354;;;;
2019/07/03 12:01:21;;;;;;;4.1;1.6;;;;;;;26.63;28.91309;1007.318;;;;
2019/07/03 12:03:46;;;;;;;4.2;1.4;;;;;;;26.18;29.7373;1007.274;;;;
2019/07/03 12:06:11;;;;;;;2.3;1.3;;;;;;;26.16;29.29785;1007.298;;;;
2019/07/03 12:08:36;;;;;;;4.1;1.7;;;;;;;26.8;29.03027;1007.232;;;;
2019/07/03 12:11:01;;;;;;;4.3;1.8;;;;;;;27.13;28.55273;1007.28;;;;
2019/07/03 12:13:26;;;;;;;3.1;1.5;;;;;;;26.76;28.79004;1007.299;;;;
2019/07/03 12:15:51;;;;;;;3.9;1.9;;;;;;;26.91;28.84766;1007.159;;;;
2019/07/03 12:18:17;;;;;;;3.2;1.5;;;;;;;26.48;28.87988;1007.136;;;;
2019/07/03 12:20:42;;;;;;;3.8;1.5;;;;;;;26.37;28.49219;1007.162;;;;
2019/07/03 12:23:07;;;;;;;3.3;1.4;;;;;;;26.32;28.80957;1007.148;;;;
2019/07/03 12:25:32;;;;;;;3.7;1.4;;;;;;;26.57;28.66016;1007.079;;;;
2019/07/03 12:27:57;;;;;;;2.9;1.4;;;;;;;26.65;28.28418;1007.006;;;;
2019/07/03 12:30:22;;;;;;;2;1.3;;;;;;;26.78;28.19824;1007.06;;;;
2019/07/03 12:32:48;;;;;;;2.2;1.5;;;;;;;26.49;28.3457;1007.128;;;;
2019/07/03 12:35:13;;;;;;;3.6;1.6;;;;;;;26.29;28.46387;1007.021;;;;
2019/07/03 12:37:39;;;;;;;3.6;1.6;;;;;;;26.61;28.06836;1006.961;;;;
2019/07/03 12:40:03;;;;;;;3.3;1.6;;;;;;;26.33;28.14551;1006.998;;;;
2019/07/03 12:42:28;;;;;;;3.2;1.6;;;;;;;26.68;28.48828;1006.931;;;;
2019/07/03 12:44:53;;;;;;;2.8;1.5;;;;;;;26.83;28.11719;1006.95;;;;
2019/07/03 12:47:19;;;;;;;3.4;1.4;;;;;;;26.92;27.75586;1006.894;;;;
2019/07/03 12:49:44;;;;;;;3.8;1.6;;;;;;;26.9;28.05078;1006.906;;;;
2019/07/03 12:52:08;;;;;;;3.7;1.6;;;;;;;27.35;27.63867;1006.922;;;;
2019/07/03 12:54:33;;;;;;;3.7;1.5;;;;;;;27.16;27.19922;1006.872;;;;
2019/07/03 12:56:59;;;;;;;4.9;1.5;;;;;;;26.63;27.74902;1006.816;;;;
2019/07/03 12:59:24;;;;;;;3.2;1.5;;;;;;;26.73;27.95703;1006.82;;;;
2019/07/03 13:01:50;;;;;;;4.6;1.5;;;;;;;27.08;27.24219;1006.803;;;;
2019/07/03 13:04:15;;;;;;;4.4;1.6;;;;;;;26.9;27.20703;1006.791;;;;
2019/07/03 13:06:40;;;;;;;5.3;1.6;;;;;;;26.9;27.75391;1006.769;;;;
2019/07/03 13:09:05;;;;;;;4.1;1.5;;;;;;;27.08;27.91992;1006.757;;;;
2019/07/03 13:11:30;;;;;;;2.7;1.4;;;;;;;27.27;27.43164;1006.818;;;;
2019/07/03 13:13:55;;;;;;;2.5;1.3;;;;;;;27.29;26.83789;1006.747;;;;
2019/07/03 13:16:20;;;;;;;3.8;1.6;;;;;;;26.98;27.25879;1006.719;;;;
2019/07/03 13:18:45;;;;;;;2.7;1.5;;;;;;;26.8;28.1748;1006.74;;;;
2019/07/03 13:21:11;;;;;;;4.4;1.6;;;;;;;26.67;28.27344;1006.726;;;;
2019/07/03 13:23:38;;;;;;;3.3;1.3;;;;;;;26.77;28.39941;1006.687;;;;
2019/07/03 13:26:03;;;;;;;5.7;1.5;;;;;;;27.33;27.50684;1006.658;;;;
2019/07/03 13:28:27;;;;;;;4.2;1.4;;;;;;;27.38;27.22461;1006.549;;;;
2019/07/03 13:30:52;;;;;;;2.6;1.4;;;;;;;27.16;26.92578;1006.646;;;;
2019/07/03 13:33:18;;;;;;;2.6;1.5;;;;;;;26.84;27.60742;1006.586;;;;
2019/07/03 13:35:42;;;;;;;3.4;1.6;;;;;;;27.09;27.79004;1006.593;;;;
2019/07/03 13:38:07;;;;;;;4.7;1.7;;;;;;;27.21;27.91504;1006.534;;;;
2019/07/03 13:40:33;;;;;;;2.8;1.4;;;;;;;27.01;27.24902;1006.613;;;;
2019/07/03 13:42:59;;;;;;;3.9;1.5;;;;;;;26.96;27.47266;1006.518;;;;
2019/07/03 13:45:24;;;;;;;2.9;1.5;;;;;;;26.82;28.10547;1006.49;;;;
2019/07/03 13:47:49;;;;;;;5.1;1.7;;;;;;;27.01;27.90332;1006.494;;;;
2019/07/03 13:50:14;;;;;;;4.4;1.5;;;;;;;26.73;28.11133;1006.507;;;;
2019/07/03 13:52:40;;;;;;;4.6;1.7;;;;;;;26.72;27.89746;1006.414;;;;
2019/07/03 13:55:04;;;;;;;4.3;1.6;;;;;;;26.63;27.96289;1006.368;;;;
2019/07/03 13:57:30;;;;;;;2.6;1.4;;;;;;;26.76;27.91211;1006.321;;;;
2019/07/03 13:59:55;;;;;;;3.7;1.6;;;;;;;26.75;28.14844;1006.332;;;;
2019/07/03 14:02:21;;;;;;;3.5;1.4;;;;;;;26.86;28.32227;1006.339;;;;
2019/07/03 14:04:45;;;;;;;5.4;1.7;;;;;;;27.1;28.13477;1006.259;;;;
2019/07/03 14:07:10;;;;;;;3.9;1.7;;;;;;;27;28.37793;1006.285;;;;
2019/07/03 14:09:37;;;;;;;5.8;1.7;;;;;;;27.41;27.84473;1006.258;;;;
2019/07/03 14:12:02;;;;;;;2.6;1.3;;;;;;;27.55;27.46094;1006.313;;;;
2019/07/03 14:14:27;;;;;;;3;1.4;;;;;;;27.28;27.78906;1006.272;;;;